sensor_id;sensor_type;location;lat;lon;timestamp;P1;durP1;ratioP1;P2;durP2;ratioP2
59571;SDS011;70118;45.638;11.714;2023-06-01T00:02:23;9.40;;;5.60;;
59571;SDS011;70118;45.638;11.714;2023-06-01T00:04:49;9.30;;;5.07;;
59571;SDS011;70118;45.638;11.714;2023-06-01T00:07:15;8.27;;;4.83;;
59571;SDS011;70118;45.638;11.714;2023-06-01T00:09:41;9.75;;;4.88;;
59571;SDS011;70118;45.638;11.714;2023-06-01T00:12:07;9.85;;;4.78;;
59571;SDS011;70118;45.638;11.714;2023-06-01T00:14:34;9.52;;;5.15;;
59571;SDS011;70118;45.638;11.714;2023-06-01T00:17:00;9.82;;;5.18;;
59571;SDS011;70118;45.638;11.714;2023-06-01T00:19:28;8.57;;;4.97;;
59571;SDS011;70118;45.638;11.714;2023-06-01T00:21:54;8.57;;;5.00;;
59571;SDS011;70118;45.638;11.714;2023-06-01T00:24:22;11.90;;;5.20;;
59571;SDS011;70118;45.638;11.714;2023-06-01T00:26:49;8.93;;;4.80;;
59571;SDS011;70118;45.638;11.714;2023-06-01T00:29:14;8.97;;;5.17;;
59571;SDS011;70118;45.638;11.714;2023-06-01T00:31:41;8.05;;;4.95;;
59571;SDS011;70118;45.638;11.714;2023-06-01T00:34:07;8.52;;;4.63;;
59571;SDS011;70118;45.638;11.714;2023-06-01T00:36:34;9.07;;;4.85;;
59571;SDS011;70118;45.638;11.714;2023-06-01T00:39:00;7.47;;;4.35;;
59571;SDS011;70118;45.638;11.714;2023-06-01T00:41:29;7.20;;;4.40;;
59571;SDS011;70118;45.638;11.714;2023-06-01T00:43:56;8.82;;;4.80;;
59571;SDS011;70118;45.638;11.714;2023-06-01T00:46:22;9.10;;;4.72;;
59571;SDS011;70118;45.638;11.714;2023-06-01T00:48:48;7.57;;;4.70;;
59571;SDS011;70118;45.638;11.714;2023-06-01T00:51:16;8.18;;;5.00;;
59571;SDS011;70118;45.638;11.714;2023-06-01T00:53:42;7.97;;;4.97;;
59571;SDS011;70118;45.638;11.714;2023-06-01T00:56:08;7.95;;;4.63;;
59571;SDS011;70118;45.638;11.714;2023-06-01T00:58:37;6.50;;;4.18;;
59571;SDS011;70118;45.638;11.714;2023-06-01T01:01:04;9.73;;;4.90;;
59571;SDS011;70118;45.638;11.714;2023-06-01T01:03:30;7.47;;;4.90;;
59571;SDS011;70118;45.638;11.714;2023-06-01T01:06:07;7.80;;;4.63;;
59571;SDS011;70118;45.638;11.714;2023-06-01T01:08:41;8.55;;;5.15;;
59571;SDS011;70118;45.638;11.714;2023-06-01T01:11:19;11.77;;;4.78;;
59571;SDS011;70118;45.638;11.714;2023-06-01T01:21:34;8.18;;;4.72;;
59571;SDS011;70118;45.638;11.714;2023-06-01T01:29:57;7.18;;;4.35;;
59571;SDS011;70118;45.638;11.714;2023-06-01T01:32:30;8.27;;;5.03;;
59571;SDS011;70118;45.638;11.714;2023-06-01T01:34:58;8.50;;;5.15;;
59571;SDS011;70118;45.638;11.714;2023-06-01T01:37:25;7.45;;;4.75;;
59571;SDS011;70118;45.638;11.714;2023-06-01T01:39:51;9.60;;;4.97;;
59571;SDS011;70118;45.638;11.714;2023-06-01T01:42:17;7.40;;;4.80;;
59571;SDS011;70118;45.638;11.714;2023-06-01T01:44:44;8.37;;;5.13;;
59571;SDS011;70118;45.638;11.714;2023-06-01T01:47:23;9.70;;;4.75;;
59571;SDS011;70118;45.638;11.714;2023-06-01T01:49:58;7.70;;;4.55;;
59571;SDS011;70118;45.638;11.714;2023-06-01T01:52:34;9.70;;;5.00;;
59571;SDS011;70118;45.638;11.714;2023-06-01T01:55:04;7.28;;;4.60;;
59571;SDS011;70118;45.638;11.714;2023-06-01T01:57:33;8.23;;;4.33;;
59571;SDS011;70118;45.638;11.714;2023-06-01T02:00:04;7.55;;;4.43;;
59571;SDS011;70118;45.638;11.714;2023-06-01T02:02:33;7.85;;;4.57;;
59571;SDS011;70118;45.638;11.714;2023-06-01T02:04:59;7.30;;;5.10;;
59571;SDS011;70118;45.638;11.714;2023-06-01T02:07:25;8.05;;;5.40;;
59571;SDS011;70118;45.638;11.714;2023-06-01T02:09:51;9.07;;;5.43;;
59571;SDS011;70118;45.638;11.714;2023-06-01T02:12:17;8.18;;;5.03;;
59571;SDS011;70118;45.638;11.714;2023-06-01T02:14:43;7.90;;;5.28;;
59571;SDS011;70118;45.638;11.714;2023-06-01T02:17:09;8.30;;;5.03;;
59571;SDS011;70118;45.638;11.714;2023-06-01T02:19:35;7.77;;;5.23;;
59571;SDS011;70118;45.638;11.714;2023-06-01T02:22:01;8.55;;;5.20;;
59571;SDS011;70118;45.638;11.714;2023-06-01T02:24:27;10.52;;;5.43;;
59571;SDS011;70118;45.638;11.714;2023-06-01T02:26:53;9.60;;;5.20;;
59571;SDS011;70118;45.638;11.714;2023-06-01T02:29:19;9.23;;;5.10;;
59571;SDS011;70118;45.638;11.714;2023-06-01T02:31:49;8.30;;;5.03;;
59571;SDS011;70118;45.638;11.714;2023-06-01T02:34:17;8.85;;;5.10;;
59571;SDS011;70118;45.638;11.714;2023-06-01T02:36:43;7.65;;;5.03;;
59571;SDS011;70118;45.638;11.714;2023-06-01T02:39:10;8.68;;;5.15;;
59571;SDS011;70118;45.638;11.714;2023-06-01T02:41:36;11.10;;;5.37;;
59571;SDS011;70118;45.638;11.714;2023-06-01T02:44:02;7.93;;;4.72;;
59571;SDS011;70118;45.638;11.714;2023-06-01T02:46:27;8.27;;;4.80;;
59571;SDS011;70118;45.638;11.714;2023-06-01T02:48:53;10.13;;;5.30;;
59571;SDS011;70118;45.638;11.714;2023-06-01T02:51:20;8.25;;;4.95;;
59571;SDS011;70118;45.638;11.714;2023-06-01T02:53:46;9.13;;;5.22;;
59571;SDS011;70118;45.638;11.714;2023-06-01T02:56:12;9.25;;;5.18;;
59571;SDS011;70118;45.638;11.714;2023-06-01T02:58:39;7.68;;;4.88;;
59571;SDS011;70118;45.638;11.714;2023-06-01T03:01:05;8.07;;;5.40;;
59571;SDS011;70118;45.638;11.714;2023-06-01T03:03:32;8.70;;;4.70;;
59571;SDS011;70118;45.638;11.714;2023-06-01T03:05:58;8.52;;;5.63;;
59571;SDS011;70118;45.638;11.714;2023-06-01T03:08:24;9.57;;;5.50;;
59571;SDS011;70118;45.638;11.714;2023-06-01T03:10:50;11.18;;;5.82;;
59571;SDS011;70118;45.638;11.714;2023-06-01T03:13:17;8.83;;;5.30;;
59571;SDS011;70118;45.638;11.714;2023-06-01T03:15:43;8.68;;;5.32;;
59571;SDS011;70118;45.638;11.714;2023-06-01T03:18:09;7.30;;;5.00;;
59571;SDS011;70118;45.638;11.714;2023-06-01T03:20:35;8.02;;;5.15;;
59571;SDS011;70118;45.638;11.714;2023-06-01T03:23:02;9.47;;;5.40;;
59571;SDS011;70118;45.638;11.714;2023-06-01T03:25:28;8.98;;;5.15;;
59571;SDS011;70118;45.638;11.714;2023-06-01T03:27:54;8.43;;;4.55;;
59571;SDS011;70118;45.638;11.714;2023-06-01T03:30:20;9.27;;;4.88;;
59571;SDS011;70118;45.638;11.714;2023-06-01T03:32:46;10.20;;;4.95;;
59571;SDS011;70118;45.638;11.714;2023-06-01T03:35:12;8.33;;;5.17;;
59571;SDS011;70118;45.638;11.714;2023-06-01T03:37:39;8.20;;;5.05;;
59571;SDS011;70118;45.638;11.714;2023-06-01T03:40:07;8.50;;;4.63;;
59571;SDS011;70118;45.638;11.714;2023-06-01T03:42:37;8.82;;;5.35;;
59571;SDS011;70118;45.638;11.714;2023-06-01T03:45:08;6.93;;;4.85;;
59571;SDS011;70118;45.638;11.714;2023-06-01T03:47:35;8.80;;;5.10;;
59571;SDS011;70118;45.638;11.714;2023-06-01T03:50:02;7.68;;;4.50;;
59571;SDS011;70118;45.638;11.714;2023-06-01T03:52:31;7.40;;;4.72;;
59571;SDS011;70118;45.638;11.714;2023-06-01T03:54:58;8.32;;;5.03;;
59571;SDS011;70118;45.638;11.714;2023-06-01T03:57:27;7.95;;;4.90;;
59571;SDS011;70118;45.638;11.714;2023-06-01T03:59:53;7.13;;;4.70;;
59571;SDS011;70118;45.638;11.714;2023-06-01T04:02:20;7.20;;;4.97;;
59571;SDS011;70118;45.638;11.714;2023-06-01T04:04:47;8.73;;;5.20;;
59571;SDS011;70118;45.638;11.714;2023-06-01T04:07:14;7.05;;;4.68;;
59571;SDS011;70118;45.638;11.714;2023-06-01T04:09:46;7.97;;;4.90;;
59571;SDS011;70118;45.638;11.714;2023-06-01T04:12:13;8.33;;;5.60;;
59571;SDS011;70118;45.638;11.714;2023-06-01T04:14:40;7.82;;;5.05;;
59571;SDS011;70118;45.638;11.714;2023-06-01T04:17:06;8.68;;;5.00;;
59571;SDS011;70118;45.638;11.714;2023-06-01T04:19:36;8.48;;;5.43;;
59571;SDS011;70118;45.638;11.714;2023-06-01T04:22:03;8.38;;;5.47;;
59571;SDS011;70118;45.638;11.714;2023-06-01T04:24:29;8.17;;;5.47;;
59571;SDS011;70118;45.638;11.714;2023-06-01T04:26:55;7.85;;;4.53;;
59571;SDS011;70118;45.638;11.714;2023-06-01T04:29:21;7.93;;;4.75;;
59571;SDS011;70118;45.638;11.714;2023-06-01T04:31:47;7.13;;;4.82;;
59571;SDS011;70118;45.638;11.714;2023-06-01T04:34:14;8.30;;;4.70;;
59571;SDS011;70118;45.638;11.714;2023-06-01T04:36:40;8.25;;;5.18;;
59571;SDS011;70118;45.638;11.714;2023-06-01T04:39:06;8.02;;;4.90;;
59571;SDS011;70118;45.638;11.714;2023-06-01T04:41:34;8.73;;;4.82;;
59571;SDS011;70118;45.638;11.714;2023-06-01T04:44:01;8.10;;;4.70;;
59571;SDS011;70118;45.638;11.714;2023-06-01T04:46:31;8.13;;;4.80;;
59571;SDS011;70118;45.638;11.714;2023-06-01T04:48:57;8.15;;;4.70;;
59571;SDS011;70118;45.638;11.714;2023-06-01T04:51:26;6.82;;;4.35;;
59571;SDS011;70118;45.638;11.714;2023-06-01T04:53:54;7.85;;;4.80;;
59571;SDS011;70118;45.638;11.714;2023-06-01T04:56:21;8.18;;;5.32;;
59571;SDS011;70118;45.638;11.714;2023-06-01T04:58:54;8.13;;;5.10;;
59571;SDS011;70118;45.638;11.714;2023-06-01T05:01:22;7.88;;;5.00;;
59571;SDS011;70118;45.638;11.714;2023-06-01T05:03:50;7.30;;;4.57;;
59571;SDS011;70118;45.638;11.714;2023-06-01T05:06:19;8.85;;;5.28;;
59571;SDS011;70118;45.638;11.714;2023-06-01T05:08:46;10.40;;;4.90;;
59571;SDS011;70118;45.638;11.714;2023-06-01T05:11:13;9.27;;;4.90;;
59571;SDS011;70118;45.638;11.714;2023-06-01T05:13:39;8.60;;;5.13;;
59571;SDS011;70118;45.638;11.714;2023-06-01T05:16:06;8.13;;;5.18;;
59571;SDS011;70118;45.638;11.714;2023-06-01T05:18:33;13.27;;;5.47;;
59571;SDS011;70118;45.638;11.714;2023-06-01T05:21:00;12.02;;;5.47;;
59571;SDS011;70118;45.638;11.714;2023-06-01T05:23:26;14.13;;;5.30;;
59571;SDS011;70118;45.638;11.714;2023-06-01T05:25:53;13.80;;;9.05;;
59571;SDS011;70118;45.638;11.714;2023-06-01T05:28:29;16.55;;;10.20;;
59571;SDS011;70118;45.638;11.714;2023-06-01T05:30:56;16.65;;;10.48;;
59571;SDS011;70118;45.638;11.714;2023-06-01T05:33:22;14.55;;;10.88;;
59571;SDS011;70118;45.638;11.714;2023-06-01T05:35:48;11.27;;;7.77;;
59571;SDS011;70118;45.638;11.714;2023-06-01T05:38:15;12.80;;;8.25;;
59571;SDS011;70118;45.638;11.714;2023-06-01T05:40:41;12.02;;;6.95;;
59571;SDS011;70118;45.638;11.714;2023-06-01T05:43:07;12.17;;;6.53;;
59571;SDS011;70118;45.638;11.714;2023-06-01T05:45:33;10.38;;;6.38;;
59571;SDS011;70118;45.638;11.714;2023-06-01T05:47:59;12.60;;;7.50;;
59571;SDS011;70118;45.638;11.714;2023-06-01T05:50:25;10.50;;;7.03;;
59571;SDS011;70118;45.638;11.714;2023-06-01T05:52:51;14.87;;;10.07;;
59571;SDS011;70118;45.638;11.714;2023-06-01T05:55:17;16.23;;;11.02;;
59571;SDS011;70118;45.638;11.714;2023-06-01T05:57:43;17.60;;;11.60;;
59571;SDS011;70118;45.638;11.714;2023-06-01T06:00:10;13.68;;;10.32;;
59571;SDS011;70118;45.638;11.714;2023-06-01T06:02:43;17.13;;;12.30;;
59571;SDS011;70118;45.638;11.714;2023-06-01T06:05:09;15.65;;;10.75;;
59571;SDS011;70118;45.638;11.714;2023-06-01T06:07:36;12.77;;;7.43;;
59571;SDS011;70118;45.638;11.714;2023-06-01T06:10:02;15.73;;;10.75;;
59571;SDS011;70118;45.638;11.714;2023-06-01T06:12:29;14.52;;;9.95;;
59571;SDS011;70118;45.638;11.714;2023-06-01T06:14:55;11.27;;;7.20;;
59571;SDS011;70118;45.638;11.714;2023-06-01T06:17:21;13.25;;;6.97;;
59571;SDS011;70118;45.638;11.714;2023-06-01T06:19:47;12.18;;;8.50;;
59571;SDS011;70118;45.638;11.714;2023-06-01T06:22:14;11.52;;;7.50;;
59571;SDS011;70118;45.638;11.714;2023-06-01T06:24:41;9.53;;;5.93;;
59571;SDS011;70118;45.638;11.714;2023-06-01T06:27:09;13.50;;;8.57;;
59571;SDS011;70118;45.638;11.714;2023-06-01T06:29:35;11.27;;;6.90;;
59571;SDS011;70118;45.638;11.714;2023-06-01T06:32:01;12.20;;;7.47;;
59571;SDS011;70118;45.638;11.714;2023-06-01T06:34:28;10.23;;;6.80;;
59571;SDS011;70118;45.638;11.714;2023-06-01T06:37:00;11.60;;;7.33;;
59571;SDS011;70118;45.638;11.714;2023-06-01T06:39:27;10.32;;;7.20;;
59571;SDS011;70118;45.638;11.714;2023-06-01T06:41:53;10.75;;;6.45;;
59571;SDS011;70118;45.638;11.714;2023-06-01T06:44:19;11.77;;;6.57;;
59571;SDS011;70118;45.638;11.714;2023-06-01T06:46:45;9.13;;;6.20;;
59571;SDS011;70118;45.638;11.714;2023-06-01T06:49:11;9.50;;;5.90;;
59571;SDS011;70118;45.638;11.714;2023-06-01T06:51:37;11.00;;;7.82;;
59571;SDS011;70118;45.638;11.714;2023-06-01T06:54:03;12.30;;;6.23;;
59571;SDS011;70118;45.638;11.714;2023-06-01T06:56:31;9.77;;;6.40;;
59571;SDS011;70118;45.638;11.714;2023-06-01T06:58:57;9.25;;;6.22;;
59571;SDS011;70118;45.638;11.714;2023-06-01T07:01:24;10.75;;;6.20;;
59571;SDS011;70118;45.638;11.714;2023-06-01T07:03:52;11.80;;;6.93;;
59571;SDS011;70118;45.638;11.714;2023-06-01T07:06:18;9.27;;;5.83;;
59571;SDS011;70118;45.638;11.714;2023-06-01T07:08:45;9.98;;;5.97;;
59571;SDS011;70118;45.638;11.714;2023-06-01T07:11:11;10.30;;;5.32;;
59571;SDS011;70118;45.638;11.714;2023-06-01T07:13:36;10.33;;;6.23;;
59571;SDS011;70118;45.638;11.714;2023-06-01T07:16:03;11.50;;;7.00;;
59571;SDS011;70118;45.638;11.714;2023-06-01T07:18:32;10.57;;;6.18;;
59571;SDS011;70118;45.638;11.714;2023-06-01T07:21:01;9.88;;;6.70;;
59571;SDS011;70118;45.638;11.714;2023-06-01T07:23:27;10.83;;;7.07;;
59571;SDS011;70118;45.638;11.714;2023-06-01T07:25:55;11.73;;;7.68;;
59571;SDS011;70118;45.638;11.714;2023-06-01T07:28:21;12.07;;;6.72;;
59571;SDS011;70118;45.638;11.714;2023-06-01T07:30:54;12.18;;;7.38;;
59571;SDS011;70118;45.638;11.714;2023-06-01T07:33:26;12.03;;;7.73;;
59571;SDS011;70118;45.638;11.714;2023-06-01T07:35:54;13.35;;;7.78;;
59571;SDS011;70118;45.638;11.714;2023-06-01T07:38:26;11.32;;;7.00;;
59571;SDS011;70118;45.638;11.714;2023-06-01T07:40:52;11.88;;;7.38;;
59571;SDS011;70118;45.638;11.714;2023-06-01T07:43:18;11.83;;;7.43;;
59571;SDS011;70118;45.638;11.714;2023-06-01T07:45:43;11.60;;;7.50;;
59571;SDS011;70118;45.638;11.714;2023-06-01T07:48:09;12.35;;;7.50;;
59571;SDS011;70118;45.638;11.714;2023-06-01T07:50:35;12.70;;;7.55;;
59571;SDS011;70118;45.638;11.714;2023-06-01T07:53:02;10.53;;;6.30;;
59571;SDS011;70118;45.638;11.714;2023-06-01T07:55:28;11.70;;;6.85;;
59571;SDS011;70118;45.638;11.714;2023-06-01T07:57:54;10.07;;;6.55;;
59571;SDS011;70118;45.638;11.714;2023-06-01T08:00:21;10.00;;;6.72;;
59571;SDS011;70118;45.638;11.714;2023-06-01T08:02:47;9.77;;;6.68;;
59571;SDS011;70118;45.638;11.714;2023-06-01T08:05:13;9.43;;;6.47;;
59571;SDS011;70118;45.638;11.714;2023-06-01T08:07:42;10.60;;;6.60;;
59571;SDS011;70118;45.638;11.714;2023-06-01T08:10:09;10.02;;;6.32;;
59571;SDS011;70118;45.638;11.714;2023-06-01T08:12:35;9.68;;;6.07;;
59571;SDS011;70118;45.638;11.714;2023-06-01T08:15:02;11.70;;;6.50;;
59571;SDS011;70118;45.638;11.714;2023-06-01T08:17:29;8.68;;;5.45;;
59571;SDS011;70118;45.638;11.714;2023-06-01T08:19:55;10.52;;;6.85;;
59571;SDS011;70118;45.638;11.714;2023-06-01T08:22:24;10.95;;;5.38;;
59571;SDS011;70118;45.638;11.714;2023-06-01T08:24:50;9.27;;;6.10;;
59571;SDS011;70118;45.638;11.714;2023-06-01T08:27:20;8.63;;;5.77;;
59571;SDS011;70118;45.638;11.714;2023-06-01T08:29:48;8.63;;;5.35;;
59571;SDS011;70118;45.638;11.714;2023-06-01T08:32:15;9.85;;;5.55;;
59571;SDS011;70118;45.638;11.714;2023-06-01T08:34:44;9.65;;;5.65;;
59571;SDS011;70118;45.638;11.714;2023-06-01T08:37:12;9.13;;;5.57;;
59571;SDS011;70118;45.638;11.714;2023-06-01T08:39:39;12.07;;;5.50;;
59571;SDS011;70118;45.638;11.714;2023-06-01T08:42:09;8.82;;;5.43;;
59571;SDS011;70118;45.638;11.714;2023-06-01T08:44:53;9.25;;;5.55;;
59571;SDS011;70118;45.638;11.714;2023-06-01T08:47:22;9.77;;;5.53;;
59571;SDS011;70118;45.638;11.714;2023-06-01T08:49:51;9.95;;;5.68;;
59571;SDS011;70118;45.638;11.714;2023-06-01T08:52:21;11.27;;;5.93;;
59571;SDS011;70118;45.638;11.714;2023-06-01T08:54:50;11.10;;;6.35;;
59571;SDS011;70118;45.638;11.714;2023-06-01T08:57:17;10.68;;;6.18;;
59571;SDS011;70118;45.638;11.714;2023-06-01T08:59:45;12.93;;;6.70;;
59571;SDS011;70118;45.638;11.714;2023-06-01T09:02:11;9.55;;;5.72;;
59571;SDS011;70118;45.638;11.714;2023-06-01T09:04:41;10.30;;;5.80;;
59571;SDS011;70118;45.638;11.714;2023-06-01T09:07:13;9.10;;;5.22;;
59571;SDS011;70118;45.638;11.714;2023-06-01T09:09:39;9.15;;;6.03;;
59571;SDS011;70118;45.638;11.714;2023-06-01T09:17:45;8.63;;;5.67;;
59571;SDS011;70118;45.638;11.714;2023-06-01T09:20:14;20.23;;;5.90;;
59571;SDS011;70118;45.638;11.714;2023-06-01T09:22:50;9.25;;;5.57;;
59571;SDS011;70118;45.638;11.714;2023-06-01T09:25:17;10.27;;;5.95;;
59571;SDS011;70118;45.638;11.714;2023-06-01T09:27:55;11.63;;;7.35;;
59571;SDS011;70118;45.638;11.714;2023-06-01T09:30:22;11.07;;;6.70;;
59571;SDS011;70118;45.638;11.714;2023-06-01T09:32:50;10.25;;;6.75;;
59571;SDS011;70118;45.638;11.714;2023-06-01T09:38:19;9.80;;;5.80;;
59571;SDS011;70118;45.638;11.714;2023-06-01T09:41:00;8.90;;;5.75;;
59571;SDS011;70118;45.638;11.714;2023-06-01T09:43:28;10.70;;;5.90;;
59571;SDS011;70118;45.638;11.714;2023-06-01T09:46:10;8.70;;;5.75;;
59571;SDS011;70118;45.638;11.714;2023-06-01T09:48:38;9.98;;;5.78;;
59571;SDS011;70118;45.638;11.714;2023-06-01T09:51:05;10.38;;;5.53;;
59571;SDS011;70118;45.638;11.714;2023-06-01T09:53:46;9.27;;;5.40;;
59571;SDS011;70118;45.638;11.714;2023-06-01T09:56:12;9.73;;;5.97;;
59571;SDS011;70118;45.638;11.714;2023-06-01T09:58:38;9.00;;;5.32;;
59571;SDS011;70118;45.638;11.714;2023-06-01T10:01:06;8.35;;;5.43;;
59571;SDS011;70118;45.638;11.714;2023-06-01T10:03:34;11.27;;;5.77;;
59571;SDS011;70118;45.638;11.714;2023-06-01T10:06:02;10.88;;;5.72;;
59571;SDS011;70118;45.638;11.714;2023-06-01T10:08:29;9.77;;;6.30;;
59571;SDS011;70118;45.638;11.714;2023-06-01T10:10:57;10.38;;;6.50;;
59571;SDS011;70118;45.638;11.714;2023-06-01T10:13:23;9.40;;;6.28;;
59571;SDS011;70118;45.638;11.714;2023-06-01T10:15:53;9.97;;;5.80;;
59571;SDS011;70118;45.638;11.714;2023-06-01T10:18:20;9.88;;;6.43;;
59571;SDS011;70118;45.638;11.714;2023-06-01T10:20:46;9.43;;;6.30;;
59571;SDS011;70118;45.638;11.714;2023-06-01T10:23:12;12.32;;;7.35;;
59571;SDS011;70118;45.638;11.714;2023-06-01T10:25:39;10.80;;;7.60;;
59571;SDS011;70118;45.638;11.714;2023-06-01T10:28:09;10.35;;;6.78;;
59571;SDS011;70118;45.638;11.714;2023-06-01T10:30:37;9.40;;;5.25;;
59571;SDS011;70118;45.638;11.714;2023-06-01T10:33:03;8.07;;;5.38;;
59571;SDS011;70118;45.638;11.714;2023-06-01T10:40:35;12.45;;;8.00;;
59571;SDS011;70118;45.638;11.714;2023-06-01T10:43:02;13.00;;;8.30;;
59571;SDS011;70118;45.638;11.714;2023-06-01T10:48:09;11.85;;;8.05;;
59571;SDS011;70118;45.638;11.714;2023-06-01T10:50:37;13.20;;;7.63;;
59571;SDS011;70118;45.638;11.714;2023-06-01T10:53:39;13.00;;;7.30;;
59571;SDS011;70118;45.638;11.714;2023-06-01T10:58:45;8.95;;;5.93;;
59571;SDS011;70118;45.638;11.714;2023-06-01T11:01:18;8.93;;;6.13;;
59571;SDS011;70118;45.638;11.714;2023-06-01T11:03:47;9.30;;;6.40;;
59571;SDS011;70118;45.638;11.714;2023-06-01T11:06:35;8.75;;;5.60;;
59571;SDS011;70118;45.638;11.714;2023-06-01T11:09:06;8.43;;;5.40;;
59571;SDS011;70118;45.638;11.714;2023-06-01T11:14:13;11.68;;;6.70;;
59571;SDS011;70118;45.638;11.714;2023-06-01T11:16:41;9.13;;;6.07;;
59571;SDS011;70118;45.638;11.714;2023-06-01T11:19:08;10.00;;;6.43;;
59571;SDS011;70118;45.638;11.714;2023-06-01T11:21:42;10.93;;;6.95;;
59571;SDS011;70118;45.638;11.714;2023-06-01T11:24:10;12.50;;;6.82;;
59571;SDS011;70118;45.638;11.714;2023-06-01T11:29:13;11.17;;;6.53;;
59571;SDS011;70118;45.638;11.714;2023-06-01T11:31:47;11.73;;;7.05;;
59571;SDS011;70118;45.638;11.714;2023-06-01T11:34:16;9.98;;;7.03;;
59571;SDS011;70118;45.638;11.714;2023-06-01T11:36:45;9.82;;;6.00;;
59571;SDS011;70118;45.638;11.714;2023-06-01T11:39:18;11.20;;;6.93;;
59571;SDS011;70118;45.638;11.714;2023-06-01T11:41:47;11.80;;;6.27;;
59571;SDS011;70118;45.638;11.714;2023-06-01T11:44:15;11.18;;;6.72;;
59571;SDS011;70118;45.638;11.714;2023-06-01T11:46:51;10.13;;;6.30;;
59571;SDS011;70118;45.638;11.714;2023-06-01T11:49:18;9.25;;;5.57;;
59571;SDS011;70118;45.638;11.714;2023-06-01T11:51:44;11.05;;;5.82;;
59571;SDS011;70118;45.638;11.714;2023-06-01T11:54:10;10.03;;;6.03;;
59571;SDS011;70118;45.638;11.714;2023-06-01T11:56:36;10.00;;;6.45;;
59571;SDS011;70118;45.638;11.714;2023-06-01T11:59:06;10.43;;;6.60;;
59571;SDS011;70118;45.638;11.714;2023-06-01T12:01:41;10.77;;;6.13;;
59571;SDS011;70118;45.638;11.714;2023-06-01T12:04:17;10.55;;;6.03;;
59571;SDS011;70118;45.638;11.714;2023-06-01T12:06:45;9.37;;;6.03;;
59571;SDS011;70118;45.638;11.714;2023-06-01T12:09:12;10.20;;;6.28;;
59571;SDS011;70118;45.638;11.714;2023-06-01T12:11:40;9.65;;;6.57;;
59571;SDS011;70118;45.638;11.714;2023-06-01T12:14:10;11.25;;;6.80;;
59571;SDS011;70118;45.638;11.714;2023-06-01T12:19:24;10.87;;;6.30;;
59571;SDS011;70118;45.638;11.714;2023-06-01T12:21:55;8.35;;;5.35;;
59571;SDS011;70118;45.638;11.714;2023-06-01T12:24:25;8.73;;;6.07;;
59571;SDS011;70118;45.638;11.714;2023-06-01T12:26:54;10.30;;;5.78;;
59571;SDS011;70118;45.638;11.714;2023-06-01T12:29:36;9.85;;;6.25;;
59571;SDS011;70118;45.638;11.714;2023-06-01T12:32:10;8.83;;;6.10;;
59571;SDS011;70118;45.638;11.714;2023-06-01T12:34:38;12.45;;;6.43;;
59571;SDS011;70118;45.638;11.714;2023-06-01T12:37:11;9.70;;;5.93;;
59571;SDS011;70118;45.638;11.714;2023-06-01T12:39:50;10.05;;;5.40;;
59571;SDS011;70118;45.638;11.714;2023-06-01T12:42:17;9.60;;;5.75;;
59571;SDS011;70118;45.638;11.714;2023-06-01T12:44:43;11.10;;;5.50;;
59571;SDS011;70118;45.638;11.714;2023-06-01T12:47:11;8.82;;;5.60;;
59571;SDS011;70118;45.638;11.714;2023-06-01T12:49:37;8.82;;;5.32;;
59571;SDS011;70118;45.638;11.714;2023-06-01T12:52:05;9.60;;;5.43;;
59571;SDS011;70118;45.638;11.714;2023-06-01T12:54:31;8.70;;;5.53;;
59571;SDS011;70118;45.638;11.714;2023-06-01T12:56:57;8.70;;;5.60;;
59571;SDS011;70118;45.638;11.714;2023-06-01T12:59:23;8.30;;;5.65;;
59571;SDS011;70118;45.638;11.714;2023-06-01T13:01:49;8.23;;;5.53;;
59571;SDS011;70118;45.638;11.714;2023-06-01T13:04:15;9.90;;;5.75;;
59571;SDS011;70118;45.638;11.714;2023-06-01T13:06:41;9.90;;;6.00;;
59571;SDS011;70118;45.638;11.714;2023-06-01T13:09:07;8.38;;;5.60;;
59571;SDS011;70118;45.638;11.714;2023-06-01T13:11:33;8.32;;;5.70;;
59571;SDS011;70118;45.638;11.714;2023-06-01T13:13:59;9.35;;;5.65;;
59571;SDS011;70118;45.638;11.714;2023-06-01T13:16:25;8.95;;;5.90;;
59571;SDS011;70118;45.638;11.714;2023-06-01T13:18:52;8.10;;;5.43;;
59571;SDS011;70118;45.638;11.714;2023-06-01T13:21:18;9.30;;;5.80;;
59571;SDS011;70118;45.638;11.714;2023-06-01T13:23:44;8.98;;;5.43;;
59571;SDS011;70118;45.638;11.714;2023-06-01T13:26:10;9.63;;;5.45;;
59571;SDS011;70118;45.638;11.714;2023-06-01T13:28:37;8.35;;;5.43;;
59571;SDS011;70118;45.638;11.714;2023-06-01T13:31:03;7.47;;;5.30;;
59571;SDS011;70118;45.638;11.714;2023-06-01T13:33:29;7.65;;;5.15;;
59571;SDS011;70118;45.638;11.714;2023-06-01T13:35:57;8.30;;;5.20;;
59571;SDS011;70118;45.638;11.714;2023-06-01T13:38:24;8.63;;;5.00;;
59571;SDS011;70118;45.638;11.714;2023-06-01T13:40:52;8.80;;;5.43;;
59571;SDS011;70118;45.638;11.714;2023-06-01T13:43:18;9.13;;;5.05;;
59571;SDS011;70118;45.638;11.714;2023-06-01T13:45:44;8.13;;;5.43;;
59571;SDS011;70118;45.638;11.714;2023-06-01T13:48:10;8.68;;;5.38;;
59571;SDS011;70118;45.638;11.714;2023-06-01T13:50:36;8.45;;;5.60;;
59571;SDS011;70118;45.638;11.714;2023-06-01T13:53:02;8.30;;;5.20;;
59571;SDS011;70118;45.638;11.714;2023-06-01T13:55:30;7.75;;;5.00;;
59571;SDS011;70118;45.638;11.714;2023-06-01T13:57:56;9.10;;;5.55;;
59571;SDS011;70118;45.638;11.714;2023-06-01T14:00:22;7.63;;;5.40;;
59571;SDS011;70118;45.638;11.714;2023-06-01T14:02:48;7.53;;;4.90;;
59571;SDS011;70118;45.638;11.714;2023-06-01T14:05:14;8.77;;;5.07;;
59571;SDS011;70118;45.638;11.714;2023-06-01T14:07:41;8.43;;;5.10;;
59571;SDS011;70118;45.638;11.714;2023-06-01T14:10:07;8.38;;;4.93;;
59571;SDS011;70118;45.638;11.714;2023-06-01T14:12:33;8.68;;;5.00;;
59571;SDS011;70118;45.638;11.714;2023-06-01T14:14:59;8.32;;;5.30;;
59571;SDS011;70118;45.638;11.714;2023-06-01T14:17:25;7.27;;;4.90;;
59571;SDS011;70118;45.638;11.714;2023-06-01T14:19:51;8.60;;;5.18;;
59571;SDS011;70118;45.638;11.714;2023-06-01T14:22:17;8.13;;;4.63;;
59571;SDS011;70118;45.638;11.714;2023-06-01T14:24:43;8.95;;;5.28;;
59571;SDS011;70118;45.638;11.714;2023-06-01T14:27:10;8.97;;;4.80;;
59571;SDS011;70118;45.638;11.714;2023-06-01T14:29:36;6.63;;;4.57;;
59571;SDS011;70118;45.638;11.714;2023-06-01T14:32:02;7.18;;;4.78;;
59571;SDS011;70118;45.638;11.714;2023-06-01T14:34:28;8.68;;;4.43;;
59571;SDS011;70118;45.638;11.714;2023-06-01T14:36:54;7.75;;;4.50;;
59571;SDS011;70118;45.638;11.714;2023-06-01T14:39:20;8.40;;;4.60;;
59571;SDS011;70118;45.638;11.714;2023-06-01T14:41:46;7.80;;;4.72;;
59571;SDS011;70118;45.638;11.714;2023-06-01T14:44:12;8.20;;;4.75;;
59571;SDS011;70118;45.638;11.714;2023-06-01T14:46:38;8.85;;;5.18;;
59571;SDS011;70118;45.638;11.714;2023-06-01T14:49:06;7.63;;;4.07;;
59571;SDS011;70118;45.638;11.714;2023-06-01T14:51:32;7.55;;;4.57;;
59571;SDS011;70118;45.638;11.714;2023-06-01T14:53:58;9.13;;;5.20;;
59571;SDS011;70118;45.638;11.714;2023-06-01T14:56:24;8.52;;;4.88;;
59571;SDS011;70118;45.638;11.714;2023-06-01T14:58:52;7.97;;;4.43;;
59571;SDS011;70118;45.638;11.714;2023-06-01T15:01:18;8.47;;;4.50;;
59571;SDS011;70118;45.638;11.714;2023-06-01T15:03:44;6.47;;;4.40;;
59571;SDS011;70118;45.638;11.714;2023-06-01T15:06:10;7.53;;;4.53;;
59571;SDS011;70118;45.638;11.714;2023-06-01T15:08:36;8.60;;;4.53;;
59571;SDS011;70118;45.638;11.714;2023-06-01T15:11:02;6.97;;;4.40;;
59571;SDS011;70118;45.638;11.714;2023-06-01T15:13:28;9.73;;;5.65;;
59571;SDS011;70118;45.638;11.714;2023-06-01T15:15:54;8.48;;;4.63;;